Time;durP1;ratioP1;P1;durP2;ratioP2;P2;SDS_P1;SDS_P2;PMS_P1;PMS_P2;Temp;Humidity;BMP_temperature;BMP_pressure;BME280_temperature;BME280_humidity;BME280_pressure;Samples;Min_cycle;Max_cycle;Signal;HPM_P1;HPM_P2
2022/12/31 00:01:58;;;;;;;0.70;0.57;;;;;;;12.49;55.56;100124.81;4922521;29;20414;-71
2022/12/31 00:04:26;;;;;;;0.43;0.30;;;;;;;12.47;55.70;100119.50;4921134;29;20039;-68
2022/12/31 00:06:54;;;;;;;1.15;0.60;;;;;;;12.46;55.33;100122.41;4927161;29;20544;-68
2022/12/31 00:09:23;;;;;;;0.95;0.57;;;;;;;12.45;55.42;100117.97;4923889;28;20043;-71
2022/12/31 00:11:51;;;;;;;1.13;0.40;;;;;;;12.41;55.82;100113.81;4925795;29;20074;-71
2022/12/31 00:14:18;;;;;;;1.05;0.52;;;;;;;12.40;55.50;100120.31;4924897;29;20501;-70
2022/12/31 00:16:46;;;;;;;1.30;0.45;;;;;;;12.37;55.87;100118.78;4928090;29;20044;-72
2022/12/31 00:19:14;;;;;;;0.82;0.60;;;;;;;12.35;56.02;100122.69;4925926;29;20060;-72
2022/12/31 00:21:43;;;;;;;0.52;0.40;;;;;;;12.34;55.41;100115.50;4926560;29;20584;-72
2022/12/31 00:24:11;;;;;;;0.20;0.20;;;;;;;12.31;55.75;100111.19;4939860;28;20246;-72
2022/12/31 00:26:40;;;;;;;0.50;0.40;;;;;;;12.32;55.96;100114.78;4920798;29;20521;-72
2022/12/31 00:29:10;;;;;;;0.85;0.50;;;;;;;12.29;55.63;100116.00;4939910;28;20043;-73
2022/12/31 00:31:38;;;;;;;0.60;0.40;;;;;;;12.27;55.68;100107.06;4923876;29;20051;-72
2022/12/31 00:34:06;;;;;;;1.65;0.60;;;;;;;12.24;56.00;100101.88;4929275;29;20044;-72
2022/12/31 00:36:36;;;;;;;0.93;0.40;;;;;;;12.25;56.17;100094.53;4927766;29;20044;-72
2022/12/31 00:39:07;;;;;;;0.50;0.50;;;;;;;12.25;56.42;100102.75;4925277;29;20244;-72
2022/12/31 00:41:35;;;;;;;1.20;0.50;;;;;;;12.22;56.03;100105.81;4924423;29;20317;-71
2022/12/31 00:44:04;;;;;;;1.15;0.75;;;;;;;12.22;55.99;100103.94;4923316;29;20568;-71
2022/12/31 00:46:32;;;;;;;1.15;0.50;;;;;;;12.20;56.33;100096.91;4908036;29;20079;-70
2022/12/31 00:49:00;;;;;;;0.80;0.50;;;;;;;12.18;55.93;100083.34;4908292;29;20067;-71
2022/12/31 00:51:29;;;;;;;2.25;0.82;;;;;;;12.19;56.16;100093.31;4904606;29;20040;-71
2022/12/31 00:53:57;;;;;;;2.33;0.80;;;;;;;12.18;56.21;100088.84;4909150;29;20044;-71
2022/12/31 00:56:28;;;;;;;1.33;0.80;;;;;;;12.19;55.96;100070.50;4904860;29;20044;-72
2022/12/31 00:58:56;;;;;;;1.33;0.90;;;;;;;12.17;55.89;100078.88;4899521;29;20495;-71
2022/12/31 01:01:27;;;;;;;1.98;0.90;;;;;;;12.18;56.19;100074.25;4906313;29;20048;-72
2022/12/31 01:03:59;;;;;;;2.15;1.10;;;;;;;12.18;55.85;100068.78;4905744;29;20099;-71
2022/12/31 01:06:27;;;;;;;1.37;0.90;;;;;;;12.14;56.33;100068.22;4905560;29;20123;-71
2022/12/31 01:08:55;;;;;;;0.93;0.73;;;;;;;12.17;56.30;100072.53;4907149;29;20047;-71
2022/12/31 01:11:27;;;;;;;1.60;0.85;;;;;;;12.16;56.21;100060.69;4893498;29;20152;-71
2022/12/31 01:13:58;;;;;;;1.40;0.85;;;;;;;12.16;56.25;100060.69;4907592;29;20053;-71
2022/12/31 01:16:29;;;;;;;2.10;1.02;;;;;;;12.18;56.42;100060.53;4907114;29;20048;-71
2022/12/31 01:18:58;;;;;;;2.03;1.00;;;;;;;12.16;55.88;100074.41;4907528;29;20155;-70
2022/12/31 01:21:30;;;;;;;2.72;1.08;;;;;;;12.16;55.81;100062.59;4901046;29;20056;-71
2022/12/31 01:23:58;;;;;;;2.05;0.90;;;;;;;12.15;55.96;100064.47;4905192;29;20040;-71
2022/12/31 01:26:27;;;;;;;1.40;0.80;;;;;;;12.16;56.37;100065.31;4899040;29;20048;-71
2022/12/31 01:28:55;;;;;;;1.52;0.80;;;;;;;12.17;55.86;100061.56;4910752;29;20052;-71
2022/12/31 01:31:24;;;;;;;1.25;0.68;;;;;;;12.18;56.02;100060.53;4903761;29;20060;-71
2022/12/31 01:33:54;;;;;;;1.83;0.90;;;;;;;12.18;55.97;100068.78;4891766;29;20056;-71
2022/12/31 01:36:23;;;;;;;2.25;0.60;;;;;;;12.18;55.88;100061.41;4888921;29;20056;-71
2022/12/31 01:38:54;;;;;;;1.25;0.65;;;;;;;12.19;55.88;100056.78;4903022;29;20044;-71
2022/12/31 01:41:24;;;;;;;1.48;1.05;;;;;;;12.20;55.99;100053.03;4905642;29;20139;-71
2022/12/31 01:43:55;;;;;;;2.50;0.80;;;;;;;12.21;56.01;100063.84;4906159;29;20419;-72
2022/12/31 01:46:29;;;;;;;1.48;0.70;;;;;;;12.22;56.11;100064.66;4907730;29;20044;-71
2022/12/31 01:49:01;;;;;;;1.10;0.50;;;;;;;12.25;56.36;100075.31;4923440;28;20047;-71
2022/12/31 01:51:33;;;;;;;0.60;0.40;;;;;;;12.23;56.59;100074.63;4925472;29;20051;-72
2022/12/31 01:54:03;;;;;;;0.95;0.50;;;;;;;12.26;56.20;100079.78;4921524;29;20039;-71
2022/12/31 01:56:32;;;;;;;0.70;0.50;;;;;;;12.26;56.22;100069.66;4935383;28;20058;-71
2022/12/31 01:59:00;;;;;;;0.38;0.30;;;;;;;12.29;56.74;100076.72;4928105;29;20032;-71
2022/12/31 02:01:32;;;;;;;0.90;0.32;;;;;;;12.32;56.42;100096.44;4926321;29;20449;-71
2022/12/31 02:04:06;;;;;;;0.38;0.20;;;;;;;12.32;56.57;100093.69;4943265;28;20599;-71
2022/12/31 02:06:39;;;;;;;0.40;0.28;;;;;;;12.36;56.90;100088.75;4924527;29;20058;-71
2022/12/31 02:09:07;;;;;;;0.75;0.25;;;;;;;12.35;56.76;100098.00;4927355;29;20465;-73
2022/12/31 02:11:36;;;;;;;0.55;0.30;;;;;;;12.40;56.92;100087.38;4928280;29;20099;-70
2022/12/31 02:14:09;;;;;;;0.77;0.22;;;;;;;12.45;56.84;100072.16;4917985;29;20414;-71
2022/12/31 02:16:46;;;;;;;0.52;0.25;;;;;;;12.47;57.55;100089.31;4925603;29;20527;-72
2022/12/31 02:19:47;;;;;;;0.30;0.20;;;;;;;12.54;57.29;100077.69;4923990;29;20051;-71
2022/12/31 02:22:24;;;;;;;0.10;0.10;;;;;;;12.59;57.01;100067.06;4925071;29;20587;-71
2022/12/31 02:25:36;;;;;;;0.38;0.20;;;;;;;12.61;57.60;100074.09;4942489;28;20043;-71
2022/12/31 02:28:19;;;;;;;0.70;0.20;;;;;;;12.71;56.92;100071.22;4925339;29;20501;-71
2022/12/31 02:30:54;;;;;;;0.10;0.10;;;;;;;12.74;56.89;100071.75;4922110;29;20055;-72
2022/12/31 02:33:26;;;;;;;0.40;0.20;;;;;;;12.81;56.95;100077.44;4927885;29;20248;-71
2022/12/31 02:35:57;;;;;;;0.50;0.25;;;;;;;12.86;56.65;100094.28;4924975;29;20119;-71
2022/12/31 02:38:29;;;;;;;0.10;0.10;;;;;;;12.92;56.56;100087.25;4925447;29;20095;-72
2022/12/31 02:40:58;;;;;;;0.80;0.10;;;;;;;12.95;56.92;100092.41;4923206;29;20142;-71
2022/12/31 02:43:26;;;;;;;0.30;0.30;;;;;;;13.01;56.76;100095.34;4923364;29;20487;-71
2022/12/31 02:46:07;;;;;;;0.30;0.17;;;;;;;13.09;56.80;100089.00;4926696;28;20164;-71
2022/12/31 02:48:46;;;;;;;0.70;0.30;;;;;;;13.12;56.51;100094.13;5000297;23;20045;-75
2022/12/31 02:51:29;;;;;;;0.17;0.15;;;;;;;13.17;56.41;100097.25;5012582;28;20576;-75
2022/12/31 02:54:22;;;;;;;0.20;0.20;;;;;;;13.19;55.79;100090.56;5023881;28;20049;-75
2022/12/31 02:57:00;;;;;;;0.63;0.25;;;;;;;13.24;56.27;100095.53;5023056;28;20045;-74
2022/12/31 03:02:23;;;;;;;0.45;0.20;;;;;;;13.32;56.18;100106.53;5021949;28;20060;-75
2022/12/31 03:04:54;;;;;;;0.10;0.10;;;;;;;13.35;55.88;100091.63;5028623;28;20047;-75
2022/12/31 03:07:25;;;;;;;0.20;0.10;;;;;;;13.40;55.63;100108.44;5031107;28;20038;-76
2022/12/31 03:09:53;;;;;;;0.25;0.10;;;;;;;13.43;55.71;100099.84;5010547;28;20064;-76
2022/12/31 03:15:19;;;;;;;0.40;0.10;;;;;;;13.49;55.93;100101.91;5015741;28;20510;-75
2022/12/31 03:17:55;;;;;;;0.28;0.20;;;;;;;13.55;55.22;100103.97;5026096;28;20048;-74
2022/12/31 03:23:17;;;;;;;0.73;0.15;;;;;;;13.59;54.99;100114.50;5027018;28;20172;-75
2022/12/31 03:25:44;;;;;;;;;;;;;;;13.34;55.98;100098.13;5024300;28;20144;-75
2022/12/31 03:28:14;;;;;;;0.28;0.17;;;;;;;13.61;55.47;100117.91;5023760;28;20341;-75
2022/12/31 03:30:45;;;;;;;0.38;0.20;;;;;;;13.68;55.28;100109.00;5018261;28;20542;-75
2022/12/31 03:33:15;;;;;;;0.95;0.32;;;;;;;13.71;55.00;100112.25;5041570;28;20045;-75
2022/12/31 03:35:45;;;;;;;0.10;0.10;;;;;;;13.73;55.03;100118.44;5027209;28;20520;-75
2022/12/31 03:38:13;;;;;;;0.40;0.10;;;;;;;13.76;55.08;100133.75;5030508;28;20052;-75
2022/12/31 03:40:43;;;;;;;0.35;0.20;;;;;;;13.79;55.20;100125.13;5026891;28;20044;-75
2022/12/31 03:43:11;;;;;;;0.60;0.20;;;;;;;13.80;54.70;100133.22;5022688;28;20046;-74
2022/12/31 03:45:39;;;;;;;0.20;0.20;;;;;;;13.83;55.17;100140.25;5023862;28;20033;-74
2022/12/31 03:48:09;;;;;;;0.10;0.10;;;;;;;13.88;55.14;100140.59;5035972;28;20045;-74
2022/12/31 03:50:38;;;;;;;0.10;0.10;;;;;;;13.90;54.72;100127.53;5025355;28;20047;-74
2022/12/31 03:53:06;;;;;;;0.10;0.10;;;;;;;13.90;54.51;100139.41;5020198;28;20056;-74
2022/12/31 03:55:34;;;;;;;0.50;0.20;;;;;;;13.93;54.97;100129.94;5025975;28;20038;-73
2022/12/31 03:58:02;;;;;;;0.63;0.30;;;;;;;13.94;54.78;100126.16;5029967;28;20042;-74
2022/12/31 04:00:30;;;;;;;1.17;0.30;;;;;;;13.95;54.84;100134.22;5022732;28;20956;-73
2022/12/31 04:02:58;;;;;;;0.63;0.20;;;;;;;13.97;54.26;100140.41;5027671;28;20402;-74
2022/12/31 04:05:26;;;;;;;0.43;0.20;;;;;;;13.98;54.38;100120.13;5024030;28;20115;-74
2022/12/31 04:07:55;;;;;;;1.08;0.20;;;;;;;14.02;54.16;100122.53;5030075;28;20132;-74
2022/12/31 04:10:23;;;;;;;0.10;0.10;;;;;;;14.02;54.31;100122.53;5029160;28;20034;-74
2022/12/31 04:12:51;;;;;;;0.28;0.10;;;;;;;14.04;54.18;100128.72;5021132;28;20046;-74
2022/12/31 04:15:20;;;;;;;0.30;0.10;;;;;;;14.06;54.05;100123.91;5024755;28;20049;-74
2022/12/31 04:17:49;;;;;;;1.00;0.20;;;;;;;14.05;54.05;100122.19;5027165;28;20057;-75
2022/12/31 04:20:17;;;;;;;0.45;0.20;;;;;;;14.06;54.34;100104.63;5019547;28;20041;-74
2022/12/31 04:22:44;;;;;;;0.13;0.13;;;;;;;14.07;54.06;100115.47;5020854;28;20041;-74
2022/12/31 04:25:14;;;;;;;0.43;0.20;;;;;;;14.10;53.91;100126.16;5034564;28;20514;-74
2022/12/31 04:27:43;;;;;;;0.15;0.15;;;;;;;14.09;53.93;100124.41;5024822;28;20401;-74
2022/12/31 04:30:13;;;;;;;0.28;0.20;;;;;;;14.11;54.06;100118.72;5022590;28;20088;-75
2022/12/31 04:32:41;;;;;;;0.30;0.20;;;;;;;14.11;53.96;100130.59;5026131;28;20603;-74
2022/12/31 04:35:10;;;;;;;0.30;0.10;;;;;;;14.13;53.95;100133.16;5020377;28;20426;-75
2022/12/31 04:37:38;;;;;;;0.17;0.17;;;;;;;14.13;53.99;100142.28;5021923;28;20124;-75
2022/12/31 04:40:07;;;;;;;0.22;0.20;;;;;;;14.16;54.11;100141.09;5024778;28;20049;-75
2022/12/31 04:42:37;;;;;;;0.68;0.13;;;;;;;14.17;53.51;100135.41;5025668;28;20576;-75
2022/12/31 04:45:05;;;;;;;0.60;0.20;;;;;;;14.17;53.84;100146.41;5010612;28;20038;-75
2022/12/31 04:47:33;;;;;;;0.52;0.20;;;;;;;14.18;53.50;100142.63;5022299;28;20042;-75
2022/12/31 04:50:01;;;;;;;0.60;0.20;;;;;;;14.20;53.41;100148.78;5010692;28;20038;-75
2022/12/31 04:52:29;;;;;;;1.48;0.20;;;;;;;14.21;53.46;100150.53;5005906;28;20046;-74
2022/12/31 04:54:57;;;;;;;0.52;0.20;;;;;;;14.23;53.84;100158.59;5002442;28;20042;-74
2022/12/31 04:57:25;;;;;;;0.50;0.20;;;;;;;14.25;53.41;100149.16;5007314;28;20050;-74
2022/12/31 04:59:54;;;;;;;0.55;0.30;;;;;;;14.27;53.29;100155.31;5006247;28;20034;-74
2022/12/31 05:02:22;;;;;;;0.73;0.30;;;;;;;14.27;53.12;100160.00;5004543;28;20046;-74
2022/12/31 05:04:50;;;;;;;0.28;0.20;;;;;;;14.29;53.09;100155.16;4994141;28;20046;-75
2022/12/31 05:07:18;;;;;;;0.55;0.20;;;;;;;14.31;53.20;100173.22;4996687;28;20506;-74
2022/12/31 05:09:46;;;;;;;0.43;0.20;;;;;;;14.33;53.43;100173.91;5002697;28;20061;-74
2022/12/31 05:12:14;;;;;;;0.68;0.30;;;;;;;14.35;53.34;100158.03;4999528;28;20050;-74
2022/12/31 05:14:41;;;;;;;0.70;0.20;;;;;;;14.37;53.13;100157.88;4994521;28;20137;-75
2022/12/31 05:17:11;;;;;;;0.85;0.40;;;;;;;14.39;53.32;100161.31;5012087;28;20527;-75
2022/12/31 05:19:38;;;;;;;0.20;0.20;;;;;;;14.39;53.14;100181.44;4993827;28;20045;-74
2022/12/31 05:24:52;;;;;;;0.40;0.20;;;;;;;14.42;53.26;100166.50;5003260;28;20050;-75
2022/12/31 05:27:19;;;;;;;1.60;0.40;;;;;;;14.45;52.63;100163.38;4998987;28;20435;-74
2022/12/31 05:29:47;;;;;;;0.55;0.20;;;;;;;14.47;52.91;100169.59;5007930;28;20482;-75
2022/12/31 05:32:17;;;;;;;0.20;0.20;;;;;;;14.50;52.88;100176.66;4984950;28;20037;-75
2022/12/31 05:34:44;;;;;;;0.63;0.30;;;;;;;14.50;52.44;100176.66;5010980;28;20052;-74
2022/12/31 05:37:12;;;;;;;0.98;0.30;;;;;;;14.52;52.65;100169.06;4984383;28;20511;-75
2022/12/31 05:39:40;;;;;;;0.70;0.35;;;;;;;14.54;52.35;100180.75;5003101;28;20599;-75
2022/12/31 05:42:08;;;;;;;0.55;0.30;;;;;;;14.54;52.40;100192.63;5000263;28;20100;-75
2022/12/31 05:44:36;;;;;;;0.38;0.28;;;;;;;14.56;52.39;100179.53;4982258;28;20287;-74
2022/12/31 05:47:04;;;;;;;1.13;0.63;;;;;;;14.58;52.56;100171.13;5001101;28;20041;-75
2022/12/31 05:49:33;;;;;;;0.90;0.22;;;;;;;14.60;52.62;100191.91;4992549;28;20041;-74
2022/12/31 05:52:01;;;;;;;0.65;0.38;;;;;;;14.61;52.33;100179.88;4987940;28;20037;-75
2022/12/31 05:54:28;;;;;;;1.30;0.40;;;;;;;14.63;52.60;100185.19;4990225;28;20478;-74
2022/12/31 05:56:56;;;;;;;1.38;0.40;;;;;;;14.65;52.25;100188.66;5004643;28;20043;-75
2022/12/31 05:59:25;;;;;;;1.70;0.40;;;;;;;14.67;52.35;100183.81;4998307;28;20360;-74
2022/12/31 06:01:53;;;;;;;0.60;0.30;;;;;;;14.67;52.11;100187.44;4985936;28;20450;-75
2022/12/31 06:04:21;;;;;;;0.85;0.30;;;;;;;14.69;52.08;100201.88;4992896;28;20578;-75
2022/12/31 06:06:50;;;;;;;0.70;0.30;;;;;;;14.70;52.30;100192.56;5005049;28;20042;-75
2022/12/31 06:09:20;;;;;;;1.88;0.30;;;;;;;14.73;52.03;100203.25;4987234;28;20591;-75
2022/12/31 06:11:49;;;;;;;0.28;0.28;;;;;;;14.72;51.94;100198.78;5002388;28;20473;-75
2022/12/31 06:14:17;;;;;;;0.93;0.25;;;;;;;14.74;51.93;100209.63;4982982;28;20046;-76
2022/12/31 06:16:45;;;;;;;1.10;0.40;;;;;;;14.75;51.95;100219.59;4989081;28;20045;-75
2022/12/31 06:19:12;;;;;;;0.98;0.50;;;;;;;14.75;51.87;100217.72;4976332;28;20057;-75
2022/12/31 06:21:40;;;;;;;1.48;0.50;;;;;;;14.77;52.34;100212.00;5011154;28;20034;-75
2022/12/31 06:24:09;;;;;;;0.93;0.40;;;;;;;14.80;51.95;100217.16;4977049;28;20054;-75
2022/12/31 06:26:37;;;;;;;1.02;0.30;;;;;;;14.78;51.86;100224.75;5017270;28;20529;-75
2022/12/31 06:29:05;;;;;;;1.85;0.50;;;;;;;14.80;52.27;100247.47;4997312;28;20041;-75
2022/12/31 06:31:33;;;;;;;1.02;0.60;;;;;;;14.81;51.96;100243.69;4990298;28;20171;-75
2022/12/31 06:34:01;;;;;;;2.00;0.47;;;;;;;14.82;52.30;100253.66;5009976;28;20061;-76
2022/12/31 06:36:29;;;;;;;0.50;0.40;;;;;;;14.83;52.21;100244.38;4986586;28;20050;-75
2022/12/31 06:38:59;;;;;;;2.53;0.50;;;;;;;14.85;51.56;100244.19;4991326;28;20169;-75
2022/12/31 06:41:28;;;;;;;1.17;0.55;;;;;;;14.86;52.14;100251.41;4989526;28;20042;-75
2022/12/31 06:43:56;;;;;;;1.00;0.40;;;;;;;14.87;51.59;100253.13;5008108;28;20052;-75
2022/12/31 06:46:25;;;;;;;0.90;0.45;;;;;;;14.87;52.08;100253.13;4999059;28;20045;-76
2022/12/31 06:48:53;;;;;;;1.48;0.43;;;;;;;14.88;51.49;100265.88;5033015;28;20045;-76
2022/12/31 06:51:22;;;;;;;1.48;0.70;;;;;;;14.89;51.99;100268.44;5026576;28;20057;-75
2022/12/31 06:53:51;;;;;;;0.85;0.50;;;;;;;14.91;51.50;100274.66;5024704;28;20056;-75
2022/12/31 06:56:21;;;;;;;1.63;0.50;;;;;;;14.91;51.55;100274.66;5031448;28;20049;-76
2022/12/31 06:58:59;;;;;;;1.45;0.40;;;;;;;14.92;51.82;100287.41;5020225;28;20512;-75
2022/12/31 07:01:39;;;;;;;0.88;0.40;;;;;;;14.95;51.56;100278.75;5019411;28;20046;-75
2022/12/31 07:04:29;;;;;;;1.55;0.60;;;;;;;14.97;50.88;100284.09;5026023;28;20042;-75
2022/12/31 07:07:06;;;;;;;1.65;0.50;;;;;;;14.97;51.58;100295.13;5035229;28;20449;-75
2022/12/31 07:09:39;;;;;;;1.77;0.43;;;;;;;14.97;51.36;100270.31;5022481;28;20033;-75
2022/12/31 07:12:18;;;;;;;1.42;0.50;;;;;;;14.98;51.57;100277.56;5036816;28;20053;-75
2022/12/31 07:14:54;;;;;;;0.98;0.52;;;;;;;15.00;51.39;100283.75;5023148;28;20655;-75
2022/12/31 07:17:33;;;;;;;1.25;0.60;;;;;;;15.02;51.20;100281.66;5026689;28;20079;-75
2022/12/31 07:20:05;;;;;;;1.48;0.50;;;;;;;15.01;51.05;100289.06;5028174;28;20045;-76
2022/12/31 07:22:33;;;;;;;1.42;0.63;;;;;;;15.00;51.69;100281.84;5033281;28;20072;-76
2022/12/31 07:25:02;;;;;;;1.15;0.60;;;;;;;15.03;50.94;100299.91;5029151;28;20039;-75
2022/12/31 07:27:42;;;;;;;1.40;0.50;;;;;;;15.06;50.81;100297.69;5021249;28;20124;-76
2022/12/31 07:30:16;;;;;;;1.40;0.50;;;;;;;15.06;50.71;100285.78;5028005;28;20557;-75
2022/12/31 07:33:10;;;;;;;1.55;0.50;;;;;;;15.07;50.87;100293.88;5031020;28;20119;-76
2022/12/31 07:35:49;;;;;;;2.80;0.68;;;;;;;15.08;50.84;100283.72;5041673;28;20049;-76
2022/12/31 07:38:25;;;;;;;1.17;0.65;;;;;;;15.09;50.85;100278.00;5035829;28;20532;-76
2022/12/31 07:41:05;;;;;;;1.10;0.50;;;;;;;15.12;50.60;100293.34;5027130;28;20048;-76
2022/12/31 07:43:50;;;;;;;1.08;0.50;;;;;;;15.14;50.70;100274.75;5026487;28;20665;-75
2022/12/31 07:46:28;;;;;;;1.10;0.47;;;;;;;15.16;50.22;100277.31;5022579;28;20064;-76
2022/12/31 07:48:56;;;;;;;1.25;0.60;;;;;;;15.16;51.05;100288.34;5027227;28;20053;-75
2022/12/31 07:51:25;;;;;;;1.05;0.40;;;;;;;15.18;50.97;100286.28;5024190;28;20042;-74
2022/12/31 07:53:53;;;;;;;1.90;0.68;;;;;;;15.19;50.61;100305.38;5023962;28;20042;-72
2022/12/31 07:56:21;;;;;;;1.48;0.50;;;;;;;15.21;50.43;100305.19;5020414;28;20041;-74
2022/12/31 07:59:01;;;;;;;1.75;0.70;;;;;;;15.25;50.33;100293.66;5025097;28;20041;-73
2022/12/31 08:01:43;;;;;;;1.15;0.50;;;;;;;15.26;49.68;100300.84;5015584;28;20056;-73
2022/12/31 08:04:22;;;;;;;1.63;0.50;;;;;;;15.26;49.79;100298.09;5023931;28;20098;-73
2022/12/31 08:07:00;;;;;;;1.35;0.55;;;;;;;15.29;49.99;100310.69;5035915;28;20041;-76
2022/12/31 08:09:39;;;;;;;2.13;0.70;;;;;;;15.33;50.13;100290.88;5023511;28;20112;-76
2022/12/31 08:12:08;;;;;;;1.10;0.50;;;;;;;15.30;50.29;100313.25;5035950;28;20487;-75
2022/12/31 08:14:43;;;;;;;1.38;0.50;;;;;;;15.34;49.39;100333.94;5019463;28;20045;-74
2022/12/31 08:17:15;;;;;;;1.15;0.43;;;;;;;15.36;49.56;100336.53;5024462;28;20038;-74
2022/12/31 08:19:44;;;;;;;;;;;;;;;15.07;50.77;100334.38;5020952;28;20098;-73
2022/12/31 08:22:40;;;;;;;0.88;0.40;;;;;;;15.34;49.85;100333.13;5024111;28;20024;-66
2022/12/31 08:25:18;;;;;;;1.63;0.50;;;;;;;15.38;49.46;100343.59;5026543;28;20096;-73
2022/12/31 08:27:58;;;;;;;1.85;0.65;;;;;;;15.41;49.72;100339.63;5028571;28;20088;-74
2022/12/31 08:30:35;;;;;;;2.08;0.50;;;;;;;15.42;49.50;100352.38;5025503;28;20473;-76
2022/12/31 08:33:15;;;;;;;1.17;0.50;;;;;;;15.43;49.07;100345.81;5028036;28;20049;-74
2022/12/31 08:36:01;;;;;;;1.58;0.60;;;;;;;15.44;49.17;100331.84;5023254;28;20242;-74
2022/12/31 08:38:38;;;;;;;2.30;0.70;;;;;;;15.46;49.45;100351.84;5028636;28;20053;-74
2022/12/31 08:41:13;;;;;;;2.35;0.70;;;;;;;15.47;49.04;100341.66;5019623;28;20091;-73
2022/12/31 08:43:50;;;;;;;1.23;0.55;;;;;;;15.48;48.82;100344.25;5032919;28;20398;-74
2022/12/31 08:46:26;;;;;;;1.17;0.60;;;;;;;15.48;49.25;100370.97;5015908;28;20082;-74
2022/12/31 08:48:58;;;;;;;1.67;0.70;;;;;;;15.49;49.20;100357.00;5008866;23;20043;-82
2022/12/31 08:51:27;;;;;;;0.95;0.60;;;;;;;15.48;49.43;100380.09;4986729;28;20034;-82
2022/12/31 08:54:03;;;;;;;3.15;1.13;;;;;;;15.49;49.09;100370.78;4985752;28;20600;-84
2022/12/31 08:56:45;;;;;;;1.40;0.60;;;;;;;15.53;49.01;100374.03;4987874;28;20192;-82
2022/12/31 08:59:33;;;;;;;1.67;0.75;;;;;;;15.53;48.96;100363.00;4963979;28;20043;-84
2022/12/31 09:02:39;;;;;;;1.70;0.70;;;;;;;15.50;48.97;100364.25;4967983;28;20059;-83
2022/12/31 09:05:24;;;;;;;1.85;0.82;;;;;;;15.55;48.86;100357.31;4965408;28;20350;-80
2022/12/31 09:08:02;;;;;;;2.40;0.88;;;;;;;15.58;48.45;100373.53;4965985;28;20057;-79
2022/12/31 09:10:34;;;;;;;2.00;0.80;;;;;;;15.59;48.75;100395.38;4965616;28;20404;-79
2022/12/31 09:13:24;;;;;;;2.22;0.98;;;;;;;15.61;48.33;100375.91;4971076;28;20338;-80
2022/12/31 09:16:02;;;;;;;2.33;0.80;;;;;;;15.62;48.75;100406.06;4970247;28;20517;-80
2022/12/31 09:18:34;;;;;;;1.58;0.65;;;;;;;15.63;49.03;100402.28;4972046;28;20054;-80
2022/12/31 09:21:18;;;;;;;2.00;0.70;;;;;;;15.65;48.44;100402.09;4972190;28;20659;-79
2022/12/31 09:23:54;;;;;;;1.73;0.60;;;;;;;15.65;48.94;100416.75;4965568;28;20053;-77
2022/12/31 09:26:39;;;;;;;2.83;0.90;;;;;;;15.68;48.23;100413.63;4970756;28;20425;-78
2022/12/31 09:29:19;;;;;;;1.42;0.50;;;;;;;15.71;48.32;100426.22;4969387;28;20058;-78
2022/12/31 09:31:54;;;;;;;1.40;0.70;;;;;;;15.72;48.70;100438.97;4966386;28;20038;-77
2022/12/31 09:34:26;;;;;;;2.17;0.68;;;;;;;15.72;48.55;100456.38;4970070;28;20050;-75
2022/12/31 09:36:59;;;;;;;1.60;0.70;;;;;;;15.75;48.81;100453.28;4959932;28;20054;-76
2022/12/31 09:39:36;;;;;;;2.15;0.93;;;;;;;15.78;48.92;100460.31;4966542;28;20089;-77
2022/12/31 09:42:33;;;;;;;1.45;0.57;;;;;;;15.80;48.70;100450.84;4973217;28;20425;-76
2022/12/31 09:45:28;;;;;;;2.47;0.85;;;;;;;15.81;48.18;100460.84;4968758;28;20038;-78
2022/12/31 09:48:19;;;;;;;3.45;0.80;;;;;;;15.84;48.42;100457.69;4970629;28;20134;-77
2022/12/31 09:51:14;;;;;;;1.50;0.70;;;;;;;15.85;48.49;100470.47;4967628;28;20043;-78
2022/12/31 09:54:13;;;;;;;1.73;0.65;;;;;;;15.87;48.53;100471.16;4970079;28;20521;-79
2022/12/31 09:56:47;;;;;;;1.55;0.70;;;;;;;15.90;48.27;100458.91;4966027;28;20121;-79
2022/12/31 09:59:26;;;;;;;2.55;0.82;;;;;;;15.92;48.59;100478.88;4968587;28;20045;-80
2022/12/31 10:02:00;;;;;;;1.65;0.68;;;;;;;15.93;48.38;100479.75;4970101;28;20498;-81
2022/12/31 10:04:52;;;;;;;2.65;0.70;;;;;;;15.96;47.69;100493.22;4971383;28;20058;-80
2022/12/31 10:07:31;;;;;;;2.15;0.95;;;;;;;15.96;48.32;100491.31;4961705;28;20054;-80
2022/12/31 10:10:07;;;;;;;3.35;1.10;;;;;;;15.97;47.79;100512.34;4965800;28;20049;-82
2022/12/31 10:12:58;;;;;;;1.27;0.70;;;;;;;15.99;47.40;100507.53;4968279;28;20044;-81
2022/12/31 10:15:52;;;;;;;1.67;0.50;;;;;;;16.00;47.47;100489.06;4964130;28;20413;-81
2022/12/31 10:18:37;;;;;;;1.33;0.70;;;;;;;16.00;47.59;100497.34;4983779;28;20409;-80
2022/12/31 10:21:22;;;;;;;1.27;0.70;;;;;;;16.00;47.18;100511.97;4966914;28;20047;-83
2022/12/31 10:24:04;;;;;;;1.63;0.70;;;;;;;16.01;47.26;100502.66;4981409;28;20066;-81
2022/12/31 10:26:54;;;;;;;2.05;0.70;;;;;;;15.99;47.41;100503.91;4965792;28;20059;-80
2022/12/31 10:29:36;;;;;;;1.63;0.60;;;;;;;16.03;47.42;100492.31;4956257;28;20469;-81
2022/12/31 10:32:30;;;;;;;2.83;1.05;;;;;;;16.00;47.59;100492.66;4966110;28;20078;-80
2022/12/31 10:35:12;;;;;;;2.20;0.82;;;;;;;16.03;47.86;100497.84;4963667;28;20133;-80
2022/12/31 10:37:50;;;;;;;1.40;0.80;;;;;;;16.05;47.54;100489.38;4961156;28;20090;-81
2022/12/31 10:40:29;;;;;;;2.28;1.00;;;;;;;16.07;47.08;100499.22;4960252;28;20390;-81
2022/12/31 10:43:35;;;;;;;1.20;0.80;;;;;;;16.06;47.47;100493.88;4961781;28;20065;-79
2022/12/31 10:46:28;;;;;;;3.08;0.80;;;;;;;16.05;47.42;100495.75;4961920;28;20074;-81
2022/12/31 10:49:23;;;;;;;3.20;0.95;;;;;;;16.10;46.90;100485.03;4968506;28;20047;-82
2022/12/31 10:52:21;;;;;;;2.03;0.80;;;;;;;16.10;46.96;100476.75;4961002;28;20039;-81
2022/12/31 10:55:23;;;;;;;2.13;0.65;;;;;;;16.10;47.12;100479.50;4962286;28;20509;-80
2022/12/31 10:58:32;;;;;;;1.63;0.68;;;;;;;16.06;47.35;100488.34;4979417;28;20151;-80
2022/12/31 11:01:08;;;;;;;2.15;0.73;;;;;;;16.12;47.25;100480.19;4935530;28;20095;-81
2022/12/31 11:04:01;;;;;;;1.75;0.70;;;;;;;16.16;46.73;100489.00;4967430;28;20054;-81
2022/12/31 11:07:17;;;;;;;2.03;0.82;;;;;;;16.07;47.31;100476.25;4964679;28;20055;-81
2022/12/31 11:10:10;;;;;;;2.60;0.90;;;;;;;16.15;46.69;100490.03;4968537;28;20047;-82
2022/12/31 11:13:11;;;;;;;1.75;0.60;;;;;;;16.16;46.75;100495.38;4963940;28;20551;-81
2022/12/31 11:16:01;;;;;;;1.23;0.55;;;;;;;16.19;46.95;100489.50;4980116;28;20070;-80
2022/12/31 11:18:38;;;;;;;2.83;0.75;;;;;;;16.21;47.23;100500.38;4972024;28;20055;-79
2022/12/31 11:21:20;;;;;;;2.85;0.90;;;;;;;16.23;46.61;100498.31;4970092;28;20050;-81
2022/12/31 11:24:05;;;;;;;1.85;0.80;;;;;;;16.23;46.46;100496.41;4959264;28;20465;-82
2022/12/31 11:26:47;;;;;;;1.92;0.98;;;;;;;16.26;46.42;100495.16;4987748;28;20039;-83
2022/12/31 11:29:30;;;;;;;3.45;0.80;;;;;;;16.26;47.05;100501.56;4968911;28;20047;-82
2022/12/31 11:32:07;;;;;;;0.85;0.60;;;;;;;16.29;46.64;100492.06;4958356;28;20098;-83
2022/12/31 11:34:53;;;;;;;2.17;0.90;;;;;;;16.30;46.58;100493.78;4966240;28;20050;-83
2022/12/31 11:37:31;;;;;;;2.13;0.70;;;;;;;16.32;46.37;100493.59;4991384;28;20382;-83
2022/12/31 11:40:15;;;;;;;1.90;0.75;;;;;;;16.34;46.56;100485.97;4963824;28;20061;-82
2022/12/31 11:42:54;;;;;;;1.48;0.75;;;;;;;16.34;46.20;100486.84;4967249;28;20632;-81
2022/12/31 11:45:37;;;;;;;2.00;0.77;;;;;;;16.35;46.17;100494.09;4970095;28;20031;-83
2022/12/31 11:48:16;;;;;;;2.80;0.90;;;;;;;16.36;46.36;100501.34;4976138;28;20050;-83
2022/12/31 11:51:16;;;;;;;1.55;0.50;;;;;;;16.36;46.06;100506.00;4973362;28;20052;-83
2022/12/31 11:57:17;;;;;;;2.75;0.80;;;;;;;16.36;46.25;100489.44;4959085;28;20047;-82
2022/12/31 11:59:46;;;;;;;2.63;1.00;;;;;;;16.36;46.51;100489.44;4967443;28;20066;-83
2022/12/31 12:02:43;;;;;;;2.42;1.00;;;;;;;16.33;46.21;100489.81;4970153;28;20088;-82
2022/12/31 12:05:16;;;;;;;2.17;0.80;;;;;;;16.37;45.85;100503.06;4939729;28;20466;-82
2022/12/31 12:07:53;;;;;;;3.10;0.70;;;;;;;16.35;46.69;100484.94;4973195;28;20121;-81
2022/12/31 12:10:27;;;;;;;1.50;0.80;;;;;;;16.37;46.23;100492.00;4975101;28;20047;-79
2022/12/31 12:13:12;;;;;;;1.88;0.70;;;;;;;16.38;45.36;100482.69;4968271;28;20686;-82
2022/12/31 12:15:44;;;;;;;1.90;1.20;;;;;;;16.37;45.94;100480.97;4968880;28;20143;-81
2022/12/31 12:18:26;;;;;;;2.20;0.90;;;;;;;16.37;45.79;100477.34;4971388;28;20070;-83